Etusivu
METAR-TAF:

METAR-TAF

Lentoasemat :

Thule, Grönlanti

Thulen lentotukikohta

Leveyspiiri: 76-32N, Pituuspiiri: 068-42W, korkeus merenpinnasta: 77 m

Tämänhetkinen sää

Tämä raportti tehtiin 12 minuuttia sitten, kello 19.58 UTC
Tuuli 8 kn idästä/kaakosta
Lämpötila -24°C
Kosteus 57%
Ilmanpaine 991 hPa
Näkyvyys 10 km tai enemmän
selkeää

METAR: BGTL 231958Z AUTO 12008KT 9999 CLR M24/M30 A2927 RMK AO2 SLPNO T12391302

Aika: 17:10 (20:10 UTC)

Sääennuste

Tämä raportti tehtiin 1 tunti ja 10 minuuttia sitten, kello 19.00 UTC
Ennuste voimassa 23. päivästä klo 19 UTC - 24. päivään klo 23 UTC
Tuuli 9 kn idästä, vaihdellen idän/koillisen ja kaakon välillä
Näkyvyys: 2401 m
selkeää

TAF: BGTL 231900Z 2319/2423 09009KT 9999 SKC QNH2920INS WND 060V130 TXM25/2319Z TNM32/2408Z LAST NO AMDS AFT 2319 NEXT 2401

Säähavainnot ja -ennusteet yli 4000 lentoasemalta (METAR- ja TAF-raportit).

Käytössä olevat sääasemat on merkitty karttaan keltaisilla ja punaisilla pisteillä.

Aseta hiiri pisteen päälle nähdäksesi sääaseman nimen.

Klikkaa sitten nähdäksesi säähavainnot ja -ennusteet.

Kartan vaihtaminen: klikkaa mustalla rastilla varustettuja vihreitä pisteitä, niin voit zoomata sisään; viivalla varustettua vihreää pistettä, niin voit zoomata ulos tai vihreitä nuolia, niin pääset viereisille kartoille.


METAR-TAF: